createdAt,value
2022-12-08T00:01:18.450Z,94326.94
2022-12-08T00:03:45.086Z,94325.34
2022-12-08T00:06:33.975Z,94318.53
2022-12-08T00:09:18.949Z,94314.13
2022-12-08T00:11:46.845Z,94313.53
2022-12-08T00:14:13.337Z,94310.38
2022-12-08T00:16:40.037Z,94310.38
2022-12-08T00:19:06.626Z,94308.75
2022-12-08T00:21:33.267Z,94302.31
2022-12-08T00:23:59.819Z,94299.69
2022-12-08T00:26:26.335Z,94300.28
2022-12-08T00:28:54.393Z,94299.25
2022-12-08T00:31:20.944Z,94298.25
2022-12-08T00:33:47.487Z,94307.09
2022-12-08T00:36:14.699Z,94302.91
2022-12-08T00:38:41.438Z,94303.91
2022-12-08T00:41:12.074Z,94292.66
2022-12-08T00:43:38.642Z,94299.69
2022-12-08T00:46:06.664Z,94290.50
2022-12-08T00:48:33.827Z,94291.72
2022-12-08T00:51:00.328Z,94288.13
2022-12-08T00:53:26.827Z,94294.13
2022-12-08T00:55:53.557Z,94290.50
2022-12-08T00:58:20.085Z,94293.09
2022-12-08T01:00:46.600Z,94296.75
2022-12-08T01:03:14.715Z,94292.56
2022-12-08T01:05:41.349Z,94296.59
2022-12-08T01:08:08.693Z,94293.41
2022-12-08T01:10:37.119Z,94292.59
2022-12-08T01:13:03.737Z,94292.41
2022-12-08T01:15:30.336Z,94286.75
2022-12-08T01:17:56.838Z,94284.16
2022-12-08T01:20:24.830Z,94288.97
2022-12-08T01:22:51.318Z,94285.22
2022-12-08T01:25:18.168Z,94285.06
2022-12-08T01:27:44.672Z,94283.34
2022-12-08T01:30:12.099Z,94283.34
2022-12-08T01:32:38.584Z,94275.09
2022-12-08T01:35:05.572Z,94272.84
2022-12-08T01:37:33.817Z,94273.63
2022-12-08T01:40:00.310Z,94271.69
2022-12-08T01:42:26.879Z,94274.13
2022-12-08T01:44:55.200Z,94270.16
2022-12-08T01:47:22.988Z,94268.53
2022-12-08T01:49:49.586Z,94271.94
2022-12-08T01:52:17.866Z,94267.97
2022-12-08T01:54:49.205Z,94259.16
2022-12-08T01:57:17.425Z,94268.94
2022-12-08T01:59:46.722Z,94266.31
2022-12-08T02:02:13.587Z,94276.38
2022-12-08T02:04:40.146Z,94267.41
2022-12-08T02:07:08.464Z,94267.00
2022-12-08T02:09:35.380Z,94262.38
2022-12-08T02:12:04.071Z,94255.38
2022-12-08T02:14:30.728Z,94253.56
2022-12-08T02:17:03.275Z,94245.34
2022-12-08T02:19:42.517Z,94247.94
2022-12-08T02:22:11.651Z,94247.34
2022-12-08T02:24:40.536Z,94244.75
2022-12-08T02:27:36.518Z,94249.72
2022-12-08T02:30:18.596Z,94238.06
2022-12-08T02:32:59.978Z,94237.72
2022-12-08T02:35:30.046Z,94239.53
2022-12-08T02:37:58.610Z,94234.09
2022-12-08T02:40:29.060Z,94234.69
2022-12-08T02:42:57.523Z,94230.50
2022-12-08T02:45:26.055Z,94232.72
2022-12-08T02:47:52.609Z,94228.38
2022-12-08T02:50:19.189Z,94223.59
2022-12-08T02:52:47.420Z,94229.84
2022-12-08T02:55:26.336Z,94227.78
2022-12-08T02:58:07.671Z,94224.19
2022-12-08T03:00:38.876Z,94223.75
2022-12-08T03:03:09.443Z,94220.94
2022-12-08T03:05:51.024Z,94221.94
2022-12-08T03:08:22.279Z,94211.38
2022-12-08T03:10:52.435Z,94212.25
2022-12-08T03:13:20.741Z,94211.66
2022-12-08T03:15:49.643Z,94206.22
2022-12-08T03:18:17.057Z,94203.97
2022-12-08T03:20:45.201Z,94203.97
2022-12-08T03:23:12.786Z,94201.38
2022-12-08T03:25:43.428Z,94195.16
2022-12-08T03:28:10.087Z,94194.34
2022-12-08T03:30:39.262Z,94205.56
2022-12-08T03:33:08.996Z,94196.75
2022-12-08T03:35:37.722Z,94189.72
2022-12-08T03:38:05.202Z,94177.94
2022-12-08T03:40:31.886Z,94185.94
2022-12-08T03:43:00.092Z,94178.59
2022-12-08T03:45:26.827Z,94179.38
2022-12-08T03:47:53.345Z,94175.78
2022-12-08T03:50:19.855Z,94178.97
2022-12-08T03:52:46.993Z,94169.53
2022-12-08T03:55:13.826Z,94177.34
2022-12-08T03:57:40.349Z,94170.56
2022-12-08T04:00:09.896Z,94171.78
2022-12-08T04:02:36.399Z,94175.47
2022-12-08T04:05:02.986Z,94173.75
2022-12-08T04:07:29.999Z,94172.22
2022-12-08T04:09:56.486Z,94166.84
2022-12-08T04:12:22.949Z,94164.44
2022-12-08T04:14:49.509Z,94168.88
2022-12-08T04:17:17.419Z,94162.91
2022-12-08T04:19:43.917Z,94165.16
2022-12-08T04:22:10.522Z,94161.19
2022-12-08T04:24:37.021Z,94167.41
2022-12-08T04:27:03.700Z,94166.03
2022-12-08T04:29:30.302Z,94160.81
2022-12-08T04:31:56.886Z,94160.16
2022-12-08T04:34:24.813Z,94156.13
2022-12-08T04:36:51.342Z,94160.13
2022-12-08T04:39:17.842Z,94162.72
2022-12-08T04:41:44.311Z,94160.91
2022-12-08T04:44:10.841Z,94168.50
2022-12-08T04:46:42.994Z,94158.88
2022-12-08T04:49:10.037Z,94156.63
2022-12-08T04:51:38.176Z,94153.59
2022-12-08T04:54:04.930Z,94150.94
2022-12-08T04:56:31.378Z,94148.94
2022-12-08T04:58:57.857Z,94148.69
2022-12-08T05:01:24.399Z,94155.06
2022-12-08T05:03:50.948Z,94147.84
2022-12-08T05:06:17.611Z,94154.84
2022-12-08T05:08:45.778Z,94155.66
2022-12-08T05:11:12.701Z,94147.84
2022-12-08T05:13:39.737Z,94139.81
2022-12-08T05:16:07.544Z,94139.38
2022-12-08T05:18:34.805Z,94146.19
2022-12-08T05:21:01.353Z,94136.56
2022-12-08T05:23:27.910Z,94134.38
2022-12-08T05:25:56.095Z,94138.81
2022-12-08T05:31:09.665Z,94135.19
2022-12-08T05:33:36.406Z,94129.81
2022-12-08T05:36:02.978Z,94125.25
2022-12-08T05:38:29.578Z,94124.13
2022-12-08T05:40:57.433Z,94125.53
2022-12-08T05:43:23.960Z,94122.78
2022-12-08T05:45:50.564Z,94119.47
2022-12-08T05:48:17.093Z,94127.94
2022-12-08T05:50:45.867Z,94119.53
2022-12-08T05:53:12.379Z,94128.56
2022-12-08T05:55:38.885Z,94122.78
2022-12-08T05:58:08.273Z,94119.38
2022-12-08T06:00:34.897Z,94119.97
2022-12-08T06:03:01.857Z,94126.31
2022-12-08T06:05:28.442Z,94124.66
2022-12-08T06:07:55.199Z,94120.63
2022-12-08T06:10:21.766Z,94126.78
2022-12-08T06:12:48.230Z,94122.16
2022-12-08T06:15:16.276Z,94125.78
2022-12-08T06:17:42.882Z,94117.38
2022-12-08T06:20:09.817Z,94110.38
2022-12-08T06:22:36.562Z,94113.31
2022-12-08T06:25:06.052Z,94115.06
2022-12-08T06:27:35.233Z,94114.41
2022-12-08T06:30:02.249Z,94113.19
2022-12-08T06:32:30.645Z,94107.75
2022-12-08T06:34:57.226Z,94112.53
2022-12-08T06:37:23.733Z,94112.31
2022-12-08T06:39:50.480Z,94111.09
2022-12-08T06:42:35.644Z,94113.47
2022-12-08T06:45:02.167Z,94114.50
2022-12-08T06:47:30.069Z,94116.94
2022-12-08T06:49:56.548Z,94111.81
2022-12-08T06:52:23.012Z,94121.28
2022-12-08T06:54:49.527Z,94122.75
2022-12-08T06:57:16.265Z,94113.56
2022-12-08T06:59:42.832Z,94118.97
2022-12-08T07:02:09.740Z,94120.78
2022-12-08T07:04:37.853Z,94120.00
2022-12-08T07:07:04.324Z,94128.38
2022-12-08T07:09:30.918Z,94120.56
2022-12-08T07:11:57.423Z,94127.78
2022-12-08T07:14:24.868Z,94123.59
2022-12-08T07:16:52.402Z,94120.44
2022-12-08T07:19:19.161Z,94117.59
2022-12-08T07:21:47.597Z,94128.00
2022-12-08T07:24:14.156Z,94121.22
2022-12-08T07:26:40.698Z,94117.22
2022-12-08T07:29:07.431Z,94128.88
2022-12-08T07:31:34.237Z,94119.25
2022-12-08T07:34:00.867Z,94124.81
2022-12-08T07:36:27.641Z,94116.59
2022-12-08T07:38:55.581Z,94123.97
2022-12-08T07:41:23.589Z,94119.34
2022-12-08T07:43:50.651Z,94130.31
2022-12-08T07:46:18.614Z,94117.44
2022-12-08T07:48:46.204Z,94124.91
2022-12-08T07:51:13.706Z,94121.28
2022-12-08T07:53:42.690Z,94113.81
2022-12-08T07:56:12.214Z,94115.34
2022-12-08T07:58:39.126Z,94112.34
2022-12-08T08:01:06.037Z,94107.72
2022-12-08T08:03:33.201Z,94103.88
2022-12-08T08:06:02.306Z,94109.38
2022-12-08T08:08:28.862Z,94106.97
2022-12-08T08:10:55.386Z,94105.94
2022-12-08T08:13:23.278Z,94110.47
2022-12-08T08:15:49.856Z,94108.94
2022-12-08T08:18:16.433Z,94104.94
2022-12-08T08:20:42.912Z,94107.31
2022-12-08T08:23:09.456Z,94104.66
2022-12-08T08:25:36.047Z,94113.72
2022-12-08T08:28:02.913Z,94113.50
2022-12-08T08:30:30.742Z,94115.31
2022-12-08T08:32:57.226Z,94115.06
2022-12-08T08:35:23.717Z,94111.63
2022-12-08T08:37:50.298Z,94101.78
2022-12-08T08:40:17.238Z,94106.06
2022-12-08T08:42:43.754Z,94109.94
2022-12-08T08:45:10.724Z,94104.69
2022-12-08T08:47:38.976Z,94107.53
2022-12-08T08:50:06.436Z,94103.03
2022-12-08T08:52:33.198Z,94105.25
2022-12-08T08:54:59.771Z,94105.16
2022-12-08T08:57:26.628Z,94103.22
2022-12-08T08:59:53.330Z,94100.25
2022-12-08T09:02:20.262Z,94102.00
2022-12-08T09:04:48.386Z,94100.97
2022-12-08T09:07:15.667Z,94100.94
2022-12-08T09:09:42.313Z,94099.56
2022-12-08T09:12:08.950Z,94102.94
2022-12-08T09:14:35.516Z,94101.97
2022-12-08T09:17:02.031Z,94091.25
2022-12-08T09:19:28.579Z,94091.09
2022-12-08T09:21:56.559Z,94088.34
2022-12-08T09:24:23.211Z,94092.13
2022-12-08T09:26:49.819Z,94093.31
2022-12-08T09:29:17.601Z,94087.88
2022-12-08T09:31:44.253Z,94093.97
2022-12-08T09:34:11.551Z,94082.47
2022-12-08T09:36:38.087Z,94079.31
2022-12-08T09:39:06.579Z,94075.69
2022-12-08T09:41:40.402Z,94068.09
2022-12-08T09:44:21.780Z,94068.13
2022-12-08T09:46:51.160Z,94068.13
2022-12-08T09:49:19.111Z,94060.22
2022-12-08T09:51:46.147Z,94061.03
2022-12-08T09:54:18.056Z,94057.59
2022-12-08T09:56:44.573Z,94063.13
2022-12-08T09:59:17.064Z,94056.28
2022-12-08T10:01:43.726Z,94049.69
2022-12-08T10:04:17.414Z,94037.31
2022-12-08T10:06:46.715Z,94038.09
2022-12-08T10:09:23.173Z,94035.72
2022-12-08T10:11:53.281Z,94030.19
2022-12-08T10:14:23.164Z,94028.59
2022-12-08T10:16:52.058Z,94017.25
2022-12-08T10:19:20.076Z,94019.06
2022-12-08T10:21:46.852Z,94023.53
2022-12-08T10:24:22.556Z,94012.94
2022-12-08T10:26:49.159Z,94012.94
2022-12-08T10:29:15.926Z,94008.38
2022-12-08T10:31:42.513Z,94000.91
2022-12-08T10:34:17.309Z,93992.75
2022-12-08T10:36:47.561Z,94004.56
2022-12-08T10:39:32.299Z,93998.97
2022-12-08T10:42:07.936Z,93989.44
2022-12-08T10:44:38.371Z,93991.25
2022-12-08T10:47:11.646Z,93977.69
2022-12-08T10:49:38.667Z,93978.03
2022-12-08T10:52:08.918Z,93975.66
2022-12-08T10:54:41.952Z,93982.66
2022-12-08T10:57:19.842Z,93972.84
2022-12-08T10:59:46.469Z,93966.00
2022-12-08T11:02:18.424Z,93970.31
2022-12-08T11:04:45.148Z,93973.81
2022-12-08T11:07:11.793Z,93971.47
2022-12-08T11:09:40.943Z,93969.63
2022-12-08T11:12:08.622Z,93967.25
2022-12-08T11:14:46.170Z,93963.31
2022-12-08T11:17:14.783Z,93956.97
2022-12-08T11:19:43.134Z,93951.72
2022-12-08T11:22:20.716Z,93950.13
2022-12-08T11:24:56.494Z,93949.84
2022-12-08T11:27:23.039Z,93940.66
2022-12-08T11:29:49.574Z,93941.16
2022-12-08T11:32:16.108Z,93946.63
2022-12-08T11:34:45.201Z,93942.38
2022-12-08T11:37:17.608Z,93943.31
2022-12-08T11:39:47.150Z,93941.19
2022-12-08T11:42:16.794Z,93935.06
2022-12-08T11:44:46.695Z,93923.84
2022-12-08T11:47:15.266Z,93926.19
2022-12-08T11:49:42.067Z,93926.72
2022-12-08T11:52:17.422Z,93923.34
2022-12-08T11:54:47.786Z,93924.78
2022-12-08T11:57:16.615Z,93916.19
2022-12-08T11:59:46.088Z,93911.38
2022-12-08T12:02:14.878Z,93914.41
2022-12-08T12:04:44.512Z,93915.84
2022-12-08T12:07:33.247Z,93907.50
2022-12-08T12:10:14.888Z,93900.84
2022-12-08T12:12:51.172Z,93903.63
2022-12-08T12:15:25.775Z,93902.22
2022-12-08T12:17:53.646Z,93901.50
2022-12-08T12:20:23.050Z,93900.78
2022-12-08T12:22:51.655Z,93904.50
2022-12-08T12:25:19.439Z,93892.19
2022-12-08T12:27:49.387Z,93890.91
2022-12-08T12:30:19.493Z,93888.22
2022-12-08T12:32:48.249Z,93886.13
2022-12-08T12:35:16.408Z,93885.28
2022-12-08T12:37:43.115Z,93877.16
2022-12-08T12:40:16.152Z,93884.25
2022-12-08T12:42:43.833Z,93876.44
2022-12-08T12:45:23.365Z,93881.09
2022-12-08T12:47:55.980Z,93883.09
2022-12-08T12:50:41.681Z,93887.81
2022-12-08T12:53:36.142Z,93873.81
2022-12-08T12:56:04.445Z,93866.94
2022-12-08T12:58:38.137Z,93864.28
2022-12-08T13:01:28.638Z,93864.53
2022-12-08T13:04:03.316Z,93862.69
2022-12-08T13:06:33.733Z,93867.38
2022-12-08T13:09:00.555Z,93866.16
2022-12-08T13:11:28.966Z,93856.59
2022-12-08T13:13:56.205Z,93864.28
2022-12-08T13:16:24.483Z,93854.13
2022-12-08T13:18:52.460Z,93855.06
2022-12-08T13:21:22.107Z,93856.16
2022-12-08T13:23:49.330Z,93853.28
2022-12-08T13:26:17.783Z,93859.06
2022-12-08T13:29:06.966Z,93855.34
2022-12-08T13:31:42.561Z,93866.06
2022-12-08T13:34:16.628Z,93865.75
2022-12-08T13:36:47.818Z,93859.66
2022-12-08T13:39:19.526Z,93858.56
2022-12-08T13:41:49.407Z,93868.75
2022-12-08T13:58:28.538Z,93865.63
2022-12-08T14:00:57.672Z,93867.16
2022-12-08T14:03:27.651Z,93863.94
2022-12-08T14:09:02.581Z,93864.06
2022-12-08T14:11:34.494Z,93862.69
2022-12-08T14:14:02.455Z,93865.25
2022-12-08T14:16:32.669Z,93858.13
2022-12-08T14:19:05.536Z,93859.66
2022-12-08T14:21:36.008Z,93852.81
2022-12-08T14:24:03.359Z,93862.22
2022-12-08T14:26:32.809Z,93855.09
2022-12-08T14:28:59.409Z,93853.97
2022-12-08T14:31:27.243Z,93851.31
2022-12-08T14:33:56.498Z,93853.06
2022-12-08T14:36:24.766Z,93851.44
2022-12-08T14:38:54.608Z,93857.63
2022-12-08T14:41:26.102Z,93857.34
2022-12-08T14:43:58.865Z,93868.06
2022-12-08T14:46:25.581Z,93861.97
2022-12-08T14:48:53.597Z,93860.03
2022-12-08T14:51:23.706Z,93869.31
2022-12-08T14:53:55.381Z,93871.88
2022-12-08T14:56:23.085Z,93869.69
2022-12-08T14:58:51.049Z,93865.44
2022-12-08T15:01:21.052Z,93864.31
2022-12-08T15:03:51.127Z,93862.66
2022-12-08T15:06:20.254Z,93869.66
2022-12-08T15:08:55.854Z,93864.84
2022-12-08T15:11:40.362Z,93862.88
2022-12-08T15:14:22.113Z,93863.59
2022-12-08T15:16:48.779Z,93867.47
2022-12-08T15:19:17.479Z,93867.94
2022-12-08T15:21:45.014Z,93872.09
2022-12-08T15:24:13.710Z,93872.22
2022-12-08T15:26:43.818Z,93881.56
2022-12-08T15:29:11.026Z,93888.53
2022-12-08T15:31:37.964Z,93885.31
2022-12-08T15:34:04.563Z,93881.28
2022-12-08T15:36:31.087Z,93882.91
2022-12-08T15:38:57.590Z,93883.31
2022-12-08T15:41:25.507Z,93879.94
2022-12-08T15:43:52.156Z,93884.78
2022-12-08T15:46:18.721Z,93881.50
2022-12-08T15:48:45.357Z,93880.63
2022-12-08T15:51:11.966Z,93882.09
2022-12-08T15:53:38.463Z,93878.59
2022-12-08T15:58:56.498Z,93884.88
2022-12-08T16:01:24.213Z,93881.16
2022-12-08T16:07:19.531Z,93880.63
2022-12-08T16:09:27.960Z,93874.97
2022-12-08T16:12:13.853Z,93876.13
2022-12-08T16:17:31.003Z,93868.44
2022-12-08T16:19:57.975Z,93863.91
2022-12-08T16:25:19.971Z,93868.47
2022-12-08T16:30:36.517Z,93863.72
2022-12-08T16:33:03.683Z,93868.03
2022-12-08T16:35:30.670Z,93863.38
2022-12-08T16:37:57.390Z,93859.75
2022-12-08T16:40:23.944Z,93869.47
2022-12-08T16:42:50.590Z,93866.19
2022-12-08T16:45:18.294Z,93863.69
2022-12-08T16:47:46.838Z,93862.78
2022-12-08T16:50:15.821Z,93867.88
2022-12-08T16:52:42.731Z,93862.19
2022-12-08T16:55:10.246Z,93870.09
2022-12-08T16:57:36.993Z,93874.03
2022-12-08T17:00:05.779Z,93875.94
2022-12-08T17:02:32.468Z,93868.00
2022-12-08T17:05:00.527Z,93864.28
2022-12-08T17:07:27.427Z,93863.91
2022-12-08T17:09:54.082Z,93867.59
2022-12-08T17:12:20.792Z,93878.91
2022-12-08T17:14:47.313Z,93867.78
2022-12-08T17:17:14.135Z,93873.22
2022-12-08T17:19:40.863Z,93873.44
2022-12-08T17:22:08.751Z,93875.59
2022-12-08T17:24:35.291Z,93873.56
2022-12-08T17:27:06.301Z,93873.78
2022-12-08T17:29:33.550Z,93880.19
2022-12-08T17:32:00.368Z,93874.44
2022-12-08T17:34:26.946Z,93874.22
2022-12-08T17:36:53.507Z,93863.59
2022-12-08T17:39:21.497Z,93859.63
2022-12-08T17:41:48.104Z,93855.66
2022-12-08T17:44:16.213Z,93865.13
2022-12-08T17:46:48.983Z,93855.03
2022-12-08T17:49:19.814Z,93863.25
2022-12-08T17:51:47.502Z,93854.66
2022-12-08T17:54:14.183Z,93855.69
2022-12-08T17:56:42.030Z,93857.13
2022-12-08T17:59:08.976Z,93854.38
2022-12-08T18:01:35.602Z,93856.84
2022-12-08T18:04:03.099Z,93851.28
2022-12-08T18:06:31.383Z,93849.91
2022-12-08T18:08:58.715Z,93842.34
2022-12-08T18:11:25.812Z,93838.38
2022-12-08T18:13:54.049Z,93843.59
2022-12-08T18:16:21.609Z,93850.81
2022-12-08T18:18:48.337Z,93854.19
2022-12-08T18:21:21.437Z,93859.97
2022-12-08T18:23:49.955Z,93849.19
2022-12-08T18:26:16.918Z,93853.03
2022-12-08T18:28:43.461Z,93848.84
2022-12-08T18:31:12.770Z,93841.25
2022-12-08T18:33:40.506Z,93844.28
2022-12-08T18:36:08.274Z,93844.16
2022-12-08T18:38:34.785Z,93841.63
2022-12-08T18:41:03.912Z,93847.03
2022-12-08T18:43:30.492Z,93850.22
2022-12-08T18:46:00.388Z,93853.25
2022-12-08T18:48:28.598Z,93861.09
2022-12-08T18:50:55.159Z,93859.56
2022-12-08T18:53:21.676Z,93859.84
2022-12-08T18:55:50.900Z,93856.09
2022-12-08T18:58:17.532Z,93846.94
2022-12-08T19:00:44.654Z,93850.53
2022-12-08T19:03:11.464Z,93853.34
2022-12-08T19:05:39.534Z,93857.97
2022-12-08T19:08:06.740Z,93849.00
2022-12-08T19:10:34.540Z,93857.22
2022-12-08T19:13:01.263Z,93855.69
2022-12-08T19:15:27.772Z,93850.75
2022-12-08T19:17:54.385Z,93863.03
2022-12-08T19:20:20.962Z,93861.84
2022-12-08T19:22:49.027Z,93856.28
2022-12-08T19:25:15.640Z,93854.69
2022-12-08T19:27:42.284Z,93849.72
2022-12-08T19:30:09.965Z,93841.78
2022-12-08T19:32:36.625Z,93845.00
2022-12-08T19:35:07.408Z,93844.03
2022-12-08T19:37:34.338Z,93846.47
2022-12-08T19:40:20.653Z,93840.69
2022-12-08T19:43:06.011Z,93841.47
2022-12-08T19:45:35.213Z,93842.25
2022-12-08T19:48:01.884Z,93848.28
2022-12-08T19:50:37.804Z,93852.44
2022-12-08T19:53:05.175Z,93840.69
2022-12-08T19:55:33.345Z,93834.13
2022-12-08T19:58:01.875Z,93835.72
2022-12-08T20:00:29.253Z,93837.31
2022-12-08T20:02:55.980Z,93838.09
2022-12-08T20:05:22.753Z,93831.16
2022-12-08T20:07:49.618Z,93836.38
2022-12-08T20:10:17.723Z,93834.63
2022-12-08T20:12:45.683Z,93834.47
2022-12-08T20:15:12.286Z,93829.69
2022-12-08T20:17:38.894Z,93829.09
2022-12-08T20:20:07.670Z,93824.50
2022-12-08T20:22:34.724Z,93824.72
2022-12-08T20:25:01.334Z,93820.31
2022-12-08T20:27:28.995Z,93816.72
2022-12-08T20:29:56.904Z,93823.50
2022-12-08T20:32:23.705Z,93825.50
2022-12-08T20:34:50.289Z,93827.91
2022-12-08T20:37:17.053Z,93826.75
2022-12-08T20:39:43.714Z,93824.00
2022-12-08T20:42:12.267Z,93827.81
2022-12-08T20:44:43.418Z,93829.44
2022-12-08T20:47:12.320Z,93825.66
2022-12-08T20:49:38.996Z,93826.44
2022-12-08T20:52:05.656Z,93821.84
2022-12-08T20:54:32.462Z,93827.22
2022-12-08T20:56:59.294Z,93829.00
2022-12-08T20:59:26.751Z,93827.81
2022-12-08T21:01:53.659Z,93830.25
2022-12-08T21:04:23.245Z,93828.28
2022-12-08T21:06:50.290Z,93826.69
2022-12-08T21:09:17.102Z,93824.91
2022-12-08T21:11:43.913Z,93825.09
2022-12-08T21:14:10.835Z,93824.31
2022-12-08T21:16:37.524Z,93817.94
2022-12-08T21:19:04.923Z,93823.13
2022-12-08T21:21:32.983Z,93826.91
2022-12-08T21:23:59.714Z,93832.69
2022-12-08T21:26:26.647Z,93835.09
2022-12-08T21:28:57.907Z,93832.50
2022-12-08T21:31:26.669Z,93830.47
2022-12-08T21:33:55.165Z,93821.66
2022-12-08T21:36:22.177Z,93821.03
2022-12-08T21:38:50.698Z,93828.75
2022-12-08T21:41:37.282Z,93815.78
2022-12-08T21:44:04.807Z,93821.94
2022-12-08T21:46:31.619Z,93815.97
2022-12-08T21:48:58.422Z,93820.13
2022-12-08T21:51:25.180Z,93811.97
2022-12-08T21:53:53.228Z,93806.56
2022-12-08T21:56:19.771Z,93803.53
2022-12-08T21:58:46.229Z,93797.72
2022-12-08T22:01:13.900Z,93806.09
2022-12-08T22:03:41.062Z,93810.28
2022-12-08T22:06:08.568Z,93803.72
2022-12-08T22:08:35.869Z,93801.94
2022-12-08T22:11:04.191Z,93799.34
2022-12-08T22:13:33.340Z,93802.50
2022-12-08T22:16:01.072Z,93794.09
2022-12-08T22:18:27.699Z,93785.09
2022-12-08T22:20:54.696Z,93786.31
2022-12-08T22:23:21.709Z,93796.09
2022-12-08T22:25:55.734Z,93808.69
2022-12-08T22:28:23.997Z,93797.09
2022-12-08T22:30:50.651Z,93789.50
2022-12-08T22:33:17.493Z,93785.06
2022-12-08T22:35:44.177Z,93780.00
2022-12-08T22:38:10.804Z,93787.94
2022-12-08T22:40:39.806Z,93793.88
2022-12-08T22:43:06.704Z,93800.03
2022-12-08T22:45:35.096Z,93787.19
2022-12-08T22:48:01.800Z,93776.53
2022-12-08T22:50:28.441Z,93769.34
2022-12-08T22:52:55.088Z,93765.72
2022-12-08T22:55:21.875Z,93773.66
2022-12-08T22:57:48.403Z,93764.47
2022-12-08T23:00:15.199Z,93759.25
2022-12-08T23:02:43.152Z,93755.66
2022-12-08T23:05:10.516Z,93756.81
2022-12-08T23:07:37.624Z,93749.03
2022-12-08T23:10:07.156Z,93745.84
2022-12-08T23:12:33.993Z,93749.47
2022-12-08T23:15:00.834Z,93755.44
2022-12-08T23:17:27.395Z,93764.03
2022-12-08T23:19:55.525Z,93763.44
2022-12-08T23:22:22.173Z,93761.22
2022-12-08T23:24:48.696Z,93774.56
2022-12-08T23:27:15.329Z,93769.72
2022-12-08T23:29:41.802Z,93768.09
2022-12-08T23:32:08.445Z,93763.88
2022-12-08T23:34:35.016Z,93773.69
2022-12-08T23:37:03.077Z,93768.28
2022-12-08T23:39:29.770Z,93752.06
2022-12-08T23:41:56.425Z,93749.03
2022-12-08T23:44:22.953Z,93752.41
2022-12-08T23:46:49.636Z,93748.00
2022-12-08T23:49:16.475Z,93746.25
2022-12-08T23:51:43.013Z,93739.00
2022-12-08T23:54:10.817Z,93737.56
2022-12-08T23:56:37.466Z,93728.53
2022-12-08T23:59:04.187Z,93733.09
